createdAt,value
2019-02-10T00:01:01.780Z,3.30
2019-02-10T00:03:28.312Z,3.20
2019-02-10T00:05:54.865Z,3.20
2019-02-10T00:08:21.427Z,3.20
2019-02-10T00:10:47.940Z,3.40
2019-02-10T00:13:24.521Z,3.50
2019-02-10T00:15:51.077Z,3.60
2019-02-10T00:18:17.601Z,3.60
2019-02-10T00:20:44.456Z,3.60
2019-02-10T00:23:12.341Z,3.70
2019-02-10T00:25:38.865Z,3.90
2019-02-10T00:28:05.420Z,3.90
2019-02-10T00:30:31.977Z,4.00
2019-02-10T00:32:58.496Z,4.00
2019-02-10T00:35:25.052Z,4.10
2019-02-10T00:37:51.564Z,4.30
2019-02-10T00:40:18.125Z,4.10
2019-02-10T00:42:44.645Z,4.00
2019-02-10T00:45:11.203Z,3.90
2019-02-10T00:47:37.756Z,3.90
2019-02-10T00:50:04.274Z,3.90
2019-02-10T00:52:31.501Z,3.90
2019-02-10T00:54:58.021Z,3.80
2019-02-10T00:57:24.576Z,3.70
2019-02-10T00:59:51.097Z,3.80
2019-02-10T01:02:17.656Z,3.80
2019-02-10T01:04:44.173Z,3.80
2019-02-10T01:07:10.732Z,3.70
2019-02-10T01:09:37.252Z,3.50
2019-02-10T01:12:03.809Z,3.40
2019-02-10T01:14:31.232Z,3.40
2019-02-10T01:16:57.787Z,3.30
2019-02-10T01:19:24.308Z,3.20
2019-02-10T01:21:50.869Z,3.10
2019-02-10T01:24:17.388Z,3.00
2019-02-10T01:26:43.908Z,3.10
2019-02-10T01:29:10.469Z,3.10
2019-02-10T01:31:36.979Z,3.10
2019-02-10T01:34:03.636Z,3.10
2019-02-10T01:36:30.161Z,3.00
2019-02-10T01:38:56.709Z,3.00
2019-02-10T01:41:23.228Z,3.00
2019-02-10T01:43:49.783Z,3.00
2019-02-10T01:46:16.301Z,3.10
2019-02-10T01:48:42.851Z,3.20
2019-02-10T01:51:09.404Z,3.10
2019-02-10T01:53:36.872Z,3.00
2019-02-10T01:56:03.530Z,2.90
2019-02-10T01:58:30.050Z,2.80
2019-02-10T02:00:56.604Z,2.70
2019-02-10T02:03:23.124Z,2.60
2019-02-10T02:05:49.676Z,2.70
2019-02-10T02:08:16.237Z,2.70
2019-02-10T02:10:42.757Z,2.80
2019-02-10T02:13:09.319Z,2.80
2019-02-10T02:15:35.872Z,2.70
2019-02-10T02:18:02.595Z,2.70
2019-02-10T02:20:29.153Z,2.80
2019-02-10T02:22:55.712Z,2.80
2019-02-10T02:25:22.228Z,2.70
2019-02-10T02:27:48.792Z,2.80
2019-02-10T02:30:15.350Z,2.80
2019-02-10T02:32:42.270Z,2.70
2019-02-10T02:35:08.809Z,2.60
2019-02-10T02:37:35.371Z,2.50
2019-02-10T02:40:01.890Z,2.50
2019-02-10T02:42:28.445Z,2.40
2019-02-10T02:44:54.992Z,2.40
2019-02-10T02:47:21.512Z,2.50
2019-02-10T02:49:48.104Z,2.50
2019-02-10T02:52:16.063Z,2.50
2019-02-10T02:54:42.885Z,2.50
2019-02-10T02:57:09.438Z,2.50
2019-02-10T02:59:36.001Z,2.50
2019-02-10T03:02:02.522Z,2.50
2019-02-10T03:04:29.081Z,2.40
2019-02-10T03:06:55.601Z,2.40
2019-02-10T03:09:22.157Z,2.40
2019-02-10T03:11:48.677Z,2.30
2019-02-10T03:14:15.232Z,2.30
2019-02-10T03:16:41.750Z,2.30
2019-02-10T03:19:08.301Z,2.30
2019-02-10T03:21:34.820Z,2.40
2019-02-10T03:24:01.378Z,2.40
2019-02-10T03:26:27.892Z,2.30
2019-02-10T03:28:54.448Z,2.30
2019-02-10T03:31:20.966Z,2.30
2019-02-10T03:33:47.524Z,2.20
2019-02-10T03:36:14.035Z,2.30
2019-02-10T03:38:40.592Z,2.30
2019-02-10T03:41:07.104Z,2.30
2019-02-10T03:43:33.661Z,2.30
2019-02-10T03:46:00.177Z,2.40
2019-02-10T03:48:26.732Z,2.40
2019-02-10T03:50:53.325Z,2.50
2019-02-10T03:53:19.844Z,2.50
2019-02-10T03:55:46.393Z,2.50
2019-02-10T03:58:12.912Z,2.60
2019-02-10T04:00:39.470Z,2.60
2019-02-10T04:03:05.984Z,2.50
2019-02-10T04:05:32.544Z,2.50
2019-02-10T04:07:59.100Z,2.40
2019-02-10T04:10:25.621Z,2.40
2019-02-10T04:12:52.176Z,2.50
2019-02-10T04:15:18.800Z,2.50
2019-02-10T04:17:45.349Z,2.50
2019-02-10T04:20:11.943Z,2.50
2019-02-10T04:22:38.455Z,2.50
2019-02-10T04:25:05.620Z,2.50
2019-02-10T04:27:32.138Z,2.50
2019-02-10T04:29:58.697Z,2.50
2019-02-10T04:32:25.216Z,2.40
2019-02-10T04:34:51.760Z,2.50
2019-02-10T04:37:18.311Z,2.50
2019-02-10T04:39:44.847Z,2.50
2019-02-10T04:42:11.391Z,2.40
2019-02-10T04:44:37.904Z,2.40
2019-02-10T04:47:04.562Z,2.40
2019-02-10T04:49:31.071Z,2.40
2019-02-10T04:51:57.668Z,2.30
2019-02-10T04:54:24.223Z,2.40
2019-02-10T04:56:50.747Z,2.40
2019-02-10T04:59:17.292Z,2.40
2019-02-10T05:01:43.813Z,2.50
2019-02-10T05:04:10.371Z,2.40
2019-02-10T05:06:36.888Z,2.40
2019-02-10T05:09:04.531Z,2.40
2019-02-10T05:11:31.055Z,2.40
2019-02-10T05:13:57.618Z,2.30
2019-02-10T05:16:24.136Z,2.40
2019-02-10T05:18:50.657Z,2.40
2019-02-10T05:21:17.225Z,2.40
2019-02-10T05:23:43.763Z,2.50
2019-02-10T05:26:10.320Z,2.50
2019-02-10T05:28:36.832Z,2.40
2019-02-10T05:31:03.429Z,2.30
2019-02-10T05:33:29.916Z,2.20
2019-02-10T05:35:56.477Z,2.30
2019-02-10T05:38:23.037Z,2.30
2019-02-10T05:40:49.556Z,2.30
2019-02-10T05:43:16.118Z,2.30
2019-02-10T05:45:42.680Z,2.40
2019-02-10T05:48:09.204Z,2.40
2019-02-10T05:50:35.810Z,2.30
2019-02-10T05:53:02.403Z,2.30
2019-02-10T05:55:28.934Z,2.20
2019-02-10T05:57:55.497Z,2.20
2019-02-10T06:00:22.064Z,2.20
2019-02-10T06:02:48.584Z,2.30
2019-02-10T06:05:16.959Z,2.30
2019-02-10T06:07:43.473Z,2.30
2019-02-10T06:10:09.993Z,2.40
2019-02-10T06:12:36.572Z,2.40
2019-02-10T06:15:03.842Z,2.40
2019-02-10T06:17:30.366Z,2.40
2019-02-10T06:19:56.929Z,2.30
2019-02-10T06:22:24.604Z,2.30
2019-02-10T06:24:51.130Z,2.20
2019-02-10T06:27:17.689Z,2.20
2019-02-10T06:29:44.257Z,2.20
2019-02-10T06:32:10.785Z,2.20
2019-02-10T06:34:37.357Z,2.20
2019-02-10T06:37:03.921Z,2.40
2019-02-10T06:39:30.445Z,2.40
2019-02-10T06:41:57.008Z,2.50
2019-02-10T06:44:23.572Z,2.40
2019-02-10T06:46:50.100Z,2.50
2019-02-10T06:49:16.669Z,2.50
2019-02-10T06:51:43.237Z,2.60
2019-02-10T06:54:09.800Z,2.70
2019-02-10T06:56:36.404Z,2.70
2019-02-10T06:59:02.965Z,2.60
2019-02-10T07:01:31.296Z,2.50
2019-02-10T07:04:02.645Z,2.50
2019-02-10T07:06:29.601Z,2.50
2019-02-10T07:08:56.135Z,2.40
2019-02-10T07:11:22.692Z,2.40
2019-02-10T07:13:51.070Z,2.40
2019-02-10T07:16:22.184Z,2.50
2019-02-10T07:18:59.464Z,2.50
2019-02-10T07:21:28.779Z,2.60
2019-02-10T07:24:03.218Z,2.80
2019-02-10T07:26:34.589Z,3.00
2019-02-10T07:29:01.216Z,3.10
2019-02-10T07:31:27.786Z,3.20
2019-02-10T07:33:59.014Z,3.30
2019-02-10T07:36:30.220Z,3.40
2019-02-10T07:39:10.372Z,3.50
2019-02-10T07:41:38.733Z,3.50
2019-02-10T07:44:10.217Z,3.60
2019-02-10T07:46:56.773Z,3.60
2019-02-10T07:49:34.156Z,3.60
2019-02-10T07:52:02.521Z,3.70
2019-02-10T07:54:42.168Z,3.70
2019-02-10T07:57:07.230Z,3.80
2019-02-10T07:59:52.186Z,3.90
2019-02-10T08:02:20.545Z,4.10
2019-02-10T08:04:54.925Z,4.20
2019-02-10T08:07:23.280Z,4.40
2019-02-10T08:09:54.769Z,4.40
2019-02-10T08:12:23.180Z,4.50
2019-02-10T08:14:54.601Z,4.70
2019-02-10T08:17:41.177Z,4.90
2019-02-10T08:20:09.559Z,5.00
2019-02-10T08:22:46.844Z,5.30
2019-02-10T08:25:18.102Z,5.50
2019-02-10T08:27:55.588Z,5.80
2019-02-10T08:30:30.084Z,6.20
2019-02-10T08:33:15.089Z,6.50
2019-02-10T08:35:46.479Z,6.60
2019-02-10T08:38:14.789Z,6.70
2019-02-10T08:40:43.829Z,6.70
2019-02-10T08:43:28.976Z,6.60
2019-02-10T08:46:00.353Z,6.40
2019-02-10T08:48:34.740Z,6.20
2019-02-10T08:51:19.525Z,6.00
2019-02-10T08:53:46.080Z,6.10
2019-02-10T08:56:12.644Z,6.30
2019-02-10T08:58:39.240Z,6.40
2019-02-10T09:01:05.773Z,6.60
2019-02-10T09:03:32.328Z,6.80
2019-02-10T09:05:58.905Z,6.90
2019-02-10T09:08:25.475Z,6.60
2019-02-10T09:10:52.036Z,6.50
2019-02-10T09:13:18.557Z,6.50
2019-02-10T09:15:45.084Z,6.60
2019-02-10T09:18:11.640Z,6.40
2019-02-10T09:20:38.212Z,6.30
2019-02-10T09:23:04.699Z,6.30
2019-02-10T09:25:31.276Z,6.30
2019-02-10T09:27:57.776Z,6.20
2019-02-10T09:30:24.334Z,6.20
2019-02-10T09:32:50.871Z,6.20
2019-02-10T09:35:17.429Z,6.10
2019-02-10T09:37:43.949Z,6.20
2019-02-10T09:40:10.903Z,6.10
2019-02-10T09:42:37.429Z,6.10
2019-02-10T09:45:05.488Z,6.10
2019-02-10T09:47:32.008Z,6.10
2019-02-10T09:49:58.572Z,6.00
2019-02-10T09:52:25.098Z,5.90
2019-02-10T09:54:51.657Z,5.80
2019-02-10T09:57:18.228Z,5.80
2019-02-10T09:59:44.781Z,5.80
2019-02-10T10:02:11.310Z,5.80
2019-02-10T10:04:37.878Z,5.80
2019-02-10T10:07:04.418Z,5.90
2019-02-10T10:09:30.976Z,5.90
2019-02-10T10:11:57.534Z,6.10
2019-02-10T10:14:30.632Z,6.30
2019-02-10T10:16:52.506Z,6.40
2019-02-10T10:19:19.047Z,6.50
2019-02-10T10:21:45.585Z,6.80
2019-02-10T10:24:12.144Z,7.00
2019-02-10T10:26:39.080Z,7.00
2019-02-10T10:29:05.601Z,7.00
2019-02-10T10:31:32.124Z,7.10
2019-02-10T10:33:58.687Z,7.00
2019-02-10T10:36:25.236Z,7.00
2019-02-10T10:38:51.761Z,7.10
2019-02-10T10:41:18.325Z,7.10
2019-02-10T10:43:44.880Z,7.00
2019-02-10T10:46:11.404Z,6.80
2019-02-10T10:48:37.966Z,6.70
2019-02-10T10:51:04.532Z,6.70
2019-02-10T10:53:31.053Z,6.70
2019-02-10T10:55:58.819Z,6.90
2019-02-10T10:58:25.577Z,7.10
2019-02-10T11:00:52.185Z,7.40
2019-02-10T11:03:18.715Z,7.60
2019-02-10T11:05:45.268Z,7.80
2019-02-10T11:08:11.820Z,7.90
2019-02-10T11:10:38.380Z,8.00
2019-02-10T11:13:04.905Z,8.10
2019-02-10T11:15:31.464Z,8.20
2019-02-10T11:17:57.987Z,8.20
2019-02-10T11:20:24.545Z,8.20
2019-02-10T11:22:51.059Z,8.20
2019-02-10T11:25:17.621Z,8.20
2019-02-10T11:27:44.140Z,8.20
2019-02-10T11:30:11.496Z,8.20
2019-02-10T11:32:38.017Z,8.40
2019-02-10T11:35:05.086Z,8.40
2019-02-10T11:37:31.641Z,8.40
2019-02-10T11:39:58.161Z,8.40
2019-02-10T11:42:24.712Z,8.40
2019-02-10T11:44:51.267Z,8.50
2019-02-10T11:47:17.793Z,8.60
2019-02-10T11:49:44.344Z,8.80
2019-02-10T11:52:10.860Z,9.10
2019-02-10T11:54:37.414Z,9.50
2019-02-10T11:57:03.924Z,9.90
2019-02-10T11:59:30.620Z,10.20
2019-02-10T12:01:57.144Z,10.70
2019-02-10T12:04:23.699Z,10.70
2019-02-10T12:06:50.216Z,10.70
2019-02-10T12:09:16.787Z,10.70
2019-02-10T12:11:43.335Z,10.70
2019-02-10T12:14:09.857Z,10.90
2019-02-10T12:16:36.416Z,10.90
2019-02-10T12:19:03.082Z,10.90
2019-02-10T12:21:29.597Z,10.60
2019-02-10T12:23:56.153Z,10.20
2019-02-10T12:26:22.711Z,9.80
2019-02-10T12:28:49.229Z,9.60
2019-02-10T12:31:15.791Z,9.60
2019-02-10T12:33:42.344Z,9.60
2019-02-10T12:36:08.864Z,9.60
2019-02-10T12:38:36.328Z,9.50
2019-02-10T12:41:02.889Z,9.30
2019-02-10T12:43:29.408Z,9.10
2019-02-10T12:45:55.992Z,9.10
2019-02-10T12:48:22.787Z,9.20
2019-02-10T12:50:49.283Z,9.30
2019-02-10T12:53:15.921Z,9.30
2019-02-10T12:55:42.484Z,9.40
2019-02-10T12:58:09.008Z,9.40
2019-02-10T13:00:35.617Z,9.50
2019-02-10T13:03:02.212Z,9.50
2019-02-10T13:05:28.780Z,9.50
2019-02-10T13:07:56.741Z,9.60
2019-02-10T13:10:24.521Z,9.80
2019-02-10T13:12:53.200Z,9.80
2019-02-10T13:15:20.044Z,10.10
2019-02-10T13:17:46.852Z,10.50
2019-02-10T13:20:13.433Z,10.90
2019-02-10T13:22:40.126Z,11.10
2019-02-10T13:25:09.967Z,11.20
2019-02-10T13:27:36.608Z,11.10
2019-02-10T13:30:04.976Z,11.20
2019-02-10T13:32:31.588Z,11.20
2019-02-10T13:34:58.133Z,11.10
2019-02-10T13:37:24.778Z,11.40
2019-02-10T13:39:53.909Z,11.70
2019-02-10T13:42:22.169Z,11.80
2019-02-10T13:44:49.175Z,12.00
2019-02-10T13:47:16.435Z,11.70
2019-02-10T13:49:43.105Z,11.80
2019-02-10T13:52:09.667Z,11.40
2019-02-10T13:54:36.192Z,11.20
2019-02-10T13:57:02.757Z,11.10
2019-02-10T13:59:29.312Z,11.00
2019-02-10T14:01:55.873Z,10.90
2019-02-10T14:04:22.455Z,10.90
2019-02-10T14:06:49.025Z,10.80
2019-02-10T14:09:15.545Z,10.90
2019-02-10T14:11:42.759Z,10.80
2019-02-10T14:14:11.675Z,10.80
2019-02-10T14:16:38.889Z,10.90
2019-02-10T14:19:06.084Z,11.00
2019-02-10T14:21:33.120Z,10.90
2019-02-10T14:24:00.007Z,10.70
2019-02-10T14:26:27.111Z,10.70
2019-02-10T14:28:54.242Z,10.70
2019-02-10T14:31:21.550Z,10.70
2019-02-10T14:33:48.744Z,10.60
2019-02-10T14:36:15.839Z,10.50
2019-02-10T14:38:42.830Z,10.30
2019-02-10T14:41:09.457Z,10.10
2019-02-10T14:43:38.685Z,10.00
2019-02-10T14:46:05.200Z,9.90
2019-02-10T14:48:31.761Z,9.70
2019-02-10T14:50:58.321Z,9.60
2019-02-10T14:53:24.836Z,9.50
2019-02-10T14:55:51.397Z,9.40
2019-02-10T14:58:17.956Z,9.30
2019-02-10T15:00:44.512Z,9.20
2019-02-10T15:03:11.114Z,9.10
2019-02-10T15:05:37.869Z,9.10
2019-02-10T15:08:04.383Z,9.00
2019-02-10T15:10:30.967Z,8.90
2019-02-10T15:12:57.520Z,8.90
2019-02-10T15:15:24.041Z,8.80
2019-02-10T15:17:50.597Z,8.90
2019-02-10T15:20:17.152Z,8.90
2019-02-10T15:22:43.673Z,8.80
2019-02-10T15:25:10.633Z,8.80
2019-02-10T15:27:37.205Z,8.70
2019-02-10T15:30:05.525Z,8.60
2019-02-10T15:32:32.083Z,8.50
2019-02-10T15:34:58.641Z,8.40
2019-02-10T15:37:25.161Z,8.20
2019-02-10T15:39:51.719Z,8.10
2019-02-10T15:42:20.532Z,8.00
2019-02-10T15:44:47.053Z,7.80
2019-02-10T15:47:13.616Z,7.80
2019-02-10T15:49:40.476Z,7.70
2019-02-10T15:52:06.997Z,7.70
2019-02-10T15:54:33.629Z,7.60
2019-02-10T15:57:00.253Z,7.50
2019-02-10T15:59:26.774Z,7.50
2019-02-10T16:01:53.332Z,7.40
2019-02-10T16:04:19.901Z,7.40
2019-02-10T16:06:46.451Z,7.30
2019-02-10T16:09:13.013Z,7.30
2019-02-10T16:11:41.120Z,7.20
2019-02-10T16:14:07.609Z,6.90
2019-02-10T16:16:34.164Z,6.80
2019-02-10T16:19:00.721Z,6.90
2019-02-10T16:21:27.237Z,6.80
2019-02-10T16:23:53.795Z,6.80
2019-02-10T16:26:20.317Z,6.80
2019-02-10T16:28:46.881Z,6.90
2019-02-10T16:31:13.402Z,6.80
2019-02-10T16:33:39.961Z,6.70
2019-02-10T16:36:06.479Z,6.60
2019-02-10T16:38:33.033Z,6.60
2019-02-10T16:41:06.113Z,6.60
2019-02-10T16:43:27.869Z,6.60
2019-02-10T16:45:54.424Z,6.70
2019-02-10T16:48:20.985Z,6.60
2019-02-10T16:50:47.509Z,6.50
2019-02-10T16:53:14.070Z,6.50
2019-02-10T16:55:40.628Z,6.40
2019-02-10T16:58:07.148Z,6.30
2019-02-10T17:00:33.704Z,6.30
2019-02-10T17:03:00.260Z,6.20
2019-02-10T17:05:26.817Z,6.10
2019-02-10T17:07:53.414Z,6.10
2019-02-10T17:10:20.272Z,6.10
2019-02-10T17:12:46.793Z,6.00
2019-02-10T17:15:13.463Z,6.00
2019-02-10T17:17:40.051Z,6.00
2019-02-10T17:20:07.872Z,5.90
2019-02-10T17:22:34.432Z,5.90
2019-02-10T17:25:00.992Z,5.90
2019-02-10T17:27:27.508Z,5.80
2019-02-10T17:29:54.071Z,5.80
2019-02-10T17:32:20.629Z,5.70
2019-02-10T17:34:47.154Z,5.60
2019-02-10T17:37:13.703Z,5.60
2019-02-10T17:39:40.265Z,5.50
2019-02-10T17:42:06.790Z,5.40
2019-02-10T17:44:33.341Z,5.40
2019-02-10T17:47:01.096Z,5.40
2019-02-10T17:49:27.621Z,5.40
2019-02-10T17:51:54.175Z,5.40
2019-02-10T17:54:20.733Z,5.60
2019-02-10T17:56:47.253Z,5.60
2019-02-10T17:59:13.814Z,5.50
2019-02-10T18:01:40.368Z,5.50
2019-02-10T18:04:06.891Z,5.40
2019-02-10T18:06:33.495Z,5.60
2019-02-10T18:09:00.120Z,6.10
2019-02-10T18:11:31.166Z,6.60
2019-02-10T18:13:55.000Z,7.00
2019-02-10T18:16:29.507Z,7.00
2019-02-10T18:18:57.864Z,6.70
2019-02-10T18:21:31.740Z,6.20
2019-02-10T18:24:00.101Z,6.00
2019-02-10T18:26:37.210Z,5.80
2019-02-10T18:29:20.189Z,5.60
2019-02-10T18:31:48.549Z,5.40
2019-02-10T18:34:17.291Z,5.10
2019-02-10T18:36:55.881Z,4.90
2019-02-10T18:39:27.614Z,4.80
2019-02-10T18:41:56.124Z,4.50
2019-02-10T18:44:24.481Z,4.50
2019-02-10T18:47:09.016Z,4.30
2019-02-10T18:49:40.389Z,4.30
2019-02-10T18:52:26.936Z,4.20
2019-02-10T18:55:06.873Z,4.10
2019-02-10T18:57:37.735Z,4.10
2019-02-10T19:00:08.531Z,4.00
2019-02-10T19:02:53.772Z,3.90
2019-02-10T19:05:38.605Z,3.70
2019-02-10T19:08:06.962Z,3.60
2019-02-10T19:10:51.737Z,3.60
2019-02-10T19:13:22.351Z,3.60
2019-02-10T19:15:53.520Z,3.50
2019-02-10T19:18:31.055Z,3.50
2019-02-10T19:20:59.395Z,3.40
2019-02-10T19:23:44.410Z,3.40
2019-02-10T19:26:15.750Z,3.40
2019-02-10T19:28:46.977Z,3.40
2019-02-10T19:31:31.427Z,3.50
2019-02-10T19:34:02.805Z,3.60
2019-02-10T19:36:31.461Z,3.60
2019-02-10T19:38:59.786Z,3.70
2019-02-10T19:41:28.149Z,3.80
2019-02-10T19:43:56.476Z,3.80
2019-02-10T19:46:42.565Z,3.80
2019-02-10T19:49:25.516Z,3.80
2019-02-10T19:51:56.897Z,3.80
2019-02-10T19:54:27.769Z,3.80
2019-02-10T19:57:14.377Z,3.90
2019-02-10T19:59:42.745Z,3.90
2019-02-10T20:02:11.109Z,3.90
2019-02-10T20:04:45.320Z,3.90
2019-02-10T20:07:13.841Z,3.90
2019-02-10T20:09:53.761Z,3.90
2019-02-10T20:12:22.388Z,3.80
2019-02-10T20:15:00.966Z,3.80
2019-02-10T20:17:37.040Z,3.90
2019-02-10T20:20:15.744Z,4.00
2019-02-10T20:22:49.605Z,3.90
2019-02-10T20:25:17.969Z,3.90
2019-02-10T20:28:02.681Z,3.80
2019-02-10T20:30:40.304Z,3.80
2019-02-10T20:33:21.602Z,3.90
2019-02-10T20:35:49.941Z,3.90
2019-02-10T20:38:20.833Z,3.80
2019-02-10T20:40:58.721Z,3.90
2019-02-10T20:43:27.079Z,3.90
2019-02-10T20:46:01.826Z,3.90
2019-02-10T20:48:35.940Z,3.90
2019-02-10T20:51:10.131Z,3.90
2019-02-10T20:53:44.444Z,3.90
2019-02-10T20:56:12.808Z,3.90
2019-02-10T20:58:41.168Z,3.90
2019-02-10T21:01:09.620Z,3.90
2019-02-10T21:03:43.669Z,3.90
2019-02-10T21:06:14.542Z,3.90
2019-02-10T21:08:45.749Z,4.00
2019-02-10T21:11:14.108Z,4.10
2019-02-10T21:13:51.210Z,4.10
2019-02-10T21:16:25.328Z,4.10
2019-02-10T21:19:11.566Z,4.00
2019-02-10T21:21:45.715Z,4.00
2019-02-10T21:24:14.068Z,3.90
2019-02-10T21:26:57.283Z,3.70
2019-02-10T21:29:42.172Z,3.70
2019-02-10T21:32:13.484Z,3.50
2019-02-10T21:34:42.204Z,3.50
2019-02-10T21:37:10.788Z,3.50
2019-02-10T21:39:39.114Z,3.50
2019-02-10T21:42:07.579Z,3.40
2019-02-10T21:44:38.587Z,3.40
2019-02-10T21:47:13.067Z,3.40
2019-02-10T21:49:39.652Z,3.30
2019-02-10T21:52:06.180Z,3.30
2019-02-10T21:54:32.737Z,3.30
2019-02-10T21:56:59.261Z,3.30
2019-02-10T21:59:25.824Z,3.40
2019-02-10T22:01:53.775Z,3.40
2019-02-10T22:04:20.544Z,3.50
2019-02-10T22:06:47.069Z,3.40
2019-02-10T22:09:13.624Z,3.50
2019-02-10T22:11:40.144Z,3.50
2019-02-10T22:14:06.713Z,3.50
2019-02-10T22:16:33.237Z,3.50
2019-02-10T22:18:59.788Z,3.40
2019-02-10T22:21:26.308Z,3.40
2019-02-10T22:23:52.871Z,3.60
2019-02-10T22:26:19.384Z,3.50
2019-02-10T22:28:45.948Z,3.50
2019-02-10T22:31:18.654Z,3.40
2019-02-10T22:33:40.820Z,3.40
2019-02-10T22:36:07.388Z,3.50
2019-02-10T22:38:33.908Z,3.50
2019-02-10T22:41:00.464Z,3.60
2019-02-10T22:43:27.025Z,3.80
2019-02-10T22:45:54.111Z,3.70
2019-02-10T22:48:20.696Z,3.80
2019-02-10T22:50:47.316Z,3.90
2019-02-10T22:53:13.836Z,3.90
2019-02-10T22:55:40.395Z,3.90
2019-02-10T22:58:06.913Z,3.80
2019-02-10T23:00:50.721Z,3.70
2019-02-10T23:03:17.334Z,3.60
2019-02-10T23:05:44.179Z,3.70
2019-02-10T23:08:10.941Z,3.80
2019-02-10T23:10:37.448Z,3.90
2019-02-10T23:13:04.004Z,3.80
2019-02-10T23:15:30.520Z,3.80
2019-02-10T23:17:57.077Z,3.90
2019-02-10T23:20:23.590Z,3.90
2019-02-10T23:22:51.060Z,3.80
2019-02-10T23:25:17.576Z,3.90
2019-02-10T23:27:44.132Z,3.80
2019-02-10T23:30:10.685Z,3.80
2019-02-10T23:32:37.204Z,3.70
2019-02-10T23:35:04.752Z,3.80
2019-02-10T23:37:31.280Z,3.90
2019-02-10T23:39:57.940Z,3.90
2019-02-10T23:42:24.462Z,3.80
2019-02-10T23:44:51.016Z,3.80
2019-02-10T23:47:17.532Z,3.80
2019-02-10T23:49:44.088Z,3.80
2019-02-10T23:52:10.645Z,3.90
2019-02-10T23:54:37.165Z,4.00
2019-02-10T23:57:03.722Z,3.90
2019-02-10T23:59:30.636Z,3.90
